Time;durP1;ratioP1;P1;durP2;ratioP2;P2;SDS_P1;SDS_P2;PMS_P1;PMS_P2;Temp;Humidity;BMP_temperature;BMP_pressure;BME280_temperature;BME280_humidity;BME280_pressure;Samples;Min_cycle;Max_cycle;Signal;HPM_P1;HPM_P2
2023/01/13 00:01:53;;;;;;;;;;;;;;;29.01;73.60;101075.84;5085034;27;65895;-36
2023/01/13 00:04:24;;;;;;;;;;;;;;;29.01;73.24;101078.53;5079342;27;68848;-36
2023/01/13 00:06:54;;;;;;;;;;;;;;;29.01;73.97;101089.34;5091336;27;66873;-36
2023/01/13 00:09:25;;;;;;;;;;;;;;;28.97;74.10;101094.31;5081323;27;70398;-36
2023/01/13 00:11:55;;;;;;;;;;;;;;;28.98;73.95;101093.28;5081659;27;66014;-36
2023/01/13 00:14:28;;;;;;;;;;;;;;;28.98;73.54;101100.56;5083742;27;70357;-42
2023/01/13 00:16:59;;;;;;;;;;;;;;;28.95;74.16;101102.63;5067545;28;65266;-36
2023/01/13 00:19:29;;;;;;;;;;;;;;;28.95;73.98;101104.50;5087853;27;69066;-37
2023/01/13 00:22:00;;;;;;;;;;;;;;;28.94;74.08;101106.34;5081793;27;66703;-37
2023/01/13 00:24:31;;;;;;;;;;;;;;;28.94;74.67;101114.44;5080042;27;69389;-36
2023/01/13 00:27:01;;;;;;;;;;;;;;;28.85;74.82;101121.06;5054883;28;65389;-36
2023/01/13 00:29:33;;;;;;;;;;;;;;;28.76;74.51;101121.44;5046979;27;68791;-36
2023/01/13 00:32:04;;;;;;;;;;;;;;;28.73;74.53;101122.66;5081001;27;66105;-36
2023/01/13 00:34:34;;;;;;;;;;;;;;;28.73;74.16;101128.06;5083919;27;70708;-36
2023/01/13 00:37:05;;;;;;;;;;;;;;;28.73;74.48;101138.88;5089712;27;65982;-36
2023/01/13 00:39:35;;;;;;;;;;;;;;;28.74;74.09;101135.13;5086252;27;69214;-37
2023/01/13 00:44:55;;;;;;;;;;;;;;;28.78;74.50;101146.34;5092131;27;70504;-36
2023/01/13 00:47:25;;;;;;;;;;;;;;;28.78;74.19;101146.34;5071423;27;65403;-36
2023/01/13 00:49:56;;;;;;;;;;;;;;;28.80;74.36;101150.53;5084850;27;70712;-35
2023/01/13 00:52:27;;;;;;;;;;;;;;;28.81;73.86;101152.22;5086204;27;66418;-36
2023/01/13 00:54:59;;;;;;;;;;;;;;;28.83;74.24;101150.13;5067609;27;69812;-36
2023/01/13 00:57:33;;;;;;;;;;;;;;;28.85;73.95;101147.22;5091422;27;60407;-37
2023/01/13 01:00:04;;;;;;;;;;;;;;;28.85;74.81;101147.22;5066297;28;68971;-37
2023/01/13 01:02:35;;;;;;;;;;;;;;;28.86;74.24;101149.75;5087608;27;67365;-36
2023/01/13 01:05:06;;;;;;;;;;;;;;;28.90;74.31;101156.41;5100248;27;70570;-36
2023/01/13 01:07:37;;;;;;;;;;;;;;;28.91;74.51;101152.66;5091146;27;67845;-36
2023/01/13 01:10:08;;;;;;;;;;;;;;;28.92;73.93;101159.75;5092986;27;70399;-36
2023/01/13 01:12:39;;;;;;;;;;;;;;;28.94;74.13;101168.44;5091475;27;65809;-37
2023/01/13 01:15:10;;;;;;;;;;;;;;;28.95;73.72;101159.34;5086391;27;71236;-36
2023/01/13 01:17:41;;;;;;;;;;;;;;;28.94;73.61;101164.91;5089901;27;67994;-36
2023/01/13 01:20:12;;;;;;;;;;;;;;;28.99;73.17;101164.34;5091852;27;70211;-36
2023/01/13 01:22:43;;;;;;;;;;;;;;;29.02;73.65;101175.56;5089109;27;65797;-35
2023/01/13 01:25:14;;;;;;;;;;;;;;;29.03;73.45;101165.59;5090503;27;71030;-36
2023/01/13 01:27:44;;;;;;;;;;;;;;;29.08;72.97;101179.34;5082384;27;66873;-36
2023/01/13 01:30:16;;;;;;;;;;;;;;;29.09;73.04;101186.44;5078756;27;69260;-36
2023/01/13 01:32:47;;;;;;;;;;;;;;;29.11;73.15;101184.34;5061636;27;66210;-36
2023/01/13 01:35:17;;;;;;;;;;;;;;;29.10;73.25;101182.69;5081870;27;69762;-37
2023/01/13 01:37:48;;;;;;;;;;;;;;;29.10;73.22;101193.50;5080853;27;66652;-35
2023/01/13 01:40:19;;;;;;;;;;;;;;;29.12;73.13;101194.13;5079847;27;69426;-37
2023/01/13 01:45:38;;;;;;;;;;;;;;;29.14;73.10;101189.34;5076421;27;70198;-37
2023/01/13 01:48:09;;;;;;;;;;;;;;;29.16;72.72;101187.28;5081729;27;66006;-36
2023/01/13 01:50:40;;;;;;;;;;;;;;;29.15;72.96;101191.03;5081802;27;69887;-36
2023/01/13 01:53:14;;;;;;;;;;;;;;;29.18;72.99;101196.03;5080392;27;67363;-37
2023/01/13 01:55:45;;;;;;;;;;;;;;;29.16;73.07;101188.13;5081375;27;70721;-35
2023/01/13 01:58:21;;;;;;;;;;;;;;;29.18;73.28;101190.63;5081525;27;66670;-37
2023/01/13 02:00:51;;;;;;;;;;;;;;;29.20;72.93;101193.97;5080214;27;70582;-35
2023/01/13 02:03:23;;;;;;;;;;;;;;;29.21;73.21;101195.63;5081835;27;67372;-37
2023/01/13 02:05:54;;;;;;;;;;;;;;;29.21;73.25;101198.31;5080956;27;70404;-36
2023/01/13 02:08:24;;;;;;;;;;;;;;;29.25;73.41;101199.56;5080186;27;66005;-36
2023/01/13 02:10:55;;;;;;;;;;;;;;;29.26;72.75;101197.72;5080161;27;69280;-35
2023/01/13 02:13:26;;;;;;;;;;;;;;;29.27;73.12;101200.22;5079532;27;65608;-35
2023/01/13 02:16:10;;;;;;;;;;;;;;;29.30;72.65;101205.22;5081127;27;68817;-35
2023/01/13 02:18:53;;;;;;;;;;;;;;;29.29;72.61;101198.16;5078356;27;66922;-35
2023/01/13 02:21:39;;;;;;;;;;;;;;;29.31;72.88;101198.78;5084834;27;69377;-36
2023/01/13 02:27:44;;;;;;;;;;;;;;;29.35;72.86;101201.91;5078383;27;70531;-35
2023/01/13 02:33:12;;;;;;;;;;;;;;;29.39;72.59;101203.16;5072800;27;69307;-33
2023/01/13 02:35:51;;;;;;;;;;;;;;;29.40;72.78;101205.69;5076523;27;66150;-35
2023/01/13 02:38:26;;;;;;;;;;;;;;;29.42;72.81;101201.94;5077924;27;69950;-35
2023/01/13 02:44:05;;;;;;;;;;;;;;;29.43;72.66;101198.22;5080644;27;66939;-36
2023/01/13 02:44:06;;;;;;;;;;;;;;;29.45;72.26;101196.13;5081103;27;70157;-36
2023/01/13 02:46:48;;;;;;;;;;;;;;;29.47;72.33;101202.16;5086930;27;66937;-35
2023/01/13 02:49:24;;;;;;;;;;;;;;;29.48;72.62;101196.56;5082018;27;70548;-35
2023/01/13 02:51:58;;;;;;;;;;;;;;;29.51;71.98;101193.44;5078515;27;66037;-34
2023/01/13 02:54:29;;;;;;;;;;;;;;;29.53;72.33;101193.22;5084843;27;70303;-35
2023/01/13 02:57:00;;;;;;;;;;;;;;;29.55;71.91;101196.56;5066426;27;65842;-35
2023/01/13 02:59:33;;;;;;;;;;;;;;;29.57;72.05;101191.81;5087906;27;70574;-35
2023/01/13 03:02:05;;;;;;;;;;;;;;;29.60;72.04;101194.09;5085158;27;67149;-36
2023/01/13 03:04:49;;;;;;;;;;;;;;;29.61;72.03;101195.75;5086066;27;69453;-36
2023/01/13 03:07:23;;;;;;;;;;;;;;;29.63;71.47;101188.31;5082554;27;66871;-36
2023/01/13 03:10:04;;;;;;;;;;;;;;;29.67;71.52;101188.72;5085467;27;69219;-35
2023/01/13 03:12:43;;;;;;;;;;;;;;;29.69;71.51;101173.97;5085577;27;66198;-36
2023/01/13 03:15:21;;;;;;;;;;;;;;;29.72;71.25;101164.59;5087595;27;70490;-35
2023/01/13 03:18:06;;;;;;;;;;;;;;;29.74;71.66;101171.47;5055476;28;65869;-36
2023/01/13 03:20:43;;;;;;;;;;;;;;;29.74;71.56;101171.47;5083055;27;69424;-35
2023/01/13 03:23:27;;;;;;;;;;;;;;;29.76;71.14;101166.72;5088469;27;65890;-37
2023/01/13 03:26:14;;;;;;;;;;;;;;;29.78;71.24;101167.34;5074822;27;69322;-37
2023/01/13 03:28:48;;;;;;;;;;;;;;;29.80;71.03;101159.84;5065594;28;65305;-37
2023/01/13 03:31:23;;;;;;;;;;;;;;;29.81;70.47;101156.09;5065708;27;70205;-36
2023/01/13 03:33:56;;;;;;;;;;;;;;;29.86;70.83;101157.34;5083560;27;65757;-36
2023/01/13 03:36:29;;;;;;;;;;;;;;;29.88;70.28;101152.56;5087444;27;69518;-36
2023/01/13 03:39:03;;;;;;;;;;;;;;;29.92;70.69;101156.50;5082125;27;66064;-36
2023/01/13 03:41:56;;;;;;;;;;;;;;;29.94;69.99;101147.16;5086509;27;70296;-36
2023/01/13 03:44:32;;;;;;;;;;;;;;;29.96;69.90;101149.66;5080353;27;66452;-35
2023/01/13 03:47:06;;;;;;;;;;;;;;;29.99;70.09;101154.66;5087749;27;70509;-36
2023/01/13 03:49:43;;;;;;;;;;;;;;;30.01;69.88;101147.19;5084896;27;67262;-36
2023/01/13 03:52:18;;;;;;;;;;;;;;;30.04;69.90;101149.47;5087216;27;70254;-36
2023/01/13 03:55:02;;;;;;;;;;;;;;;30.04;69.40;101135.94;5085802;27;66482;-37
2023/01/13 03:57:35;;;;;;;;;;;;;;;30.06;69.32;101133.84;5084436;27;70624;-36
2023/01/13 04:00:08;;;;;;;;;;;;;;;30.11;68.92;101131.34;5087359;27;66614;-36
2023/01/13 04:02:39;;;;;;;;;;;;;;;30.12;69.48;101133.03;5086389;27;70798;-37
2023/01/13 04:05:10;;;;;;;;;;;;;;;30.15;69.31;101121.78;5078437;27;65485;-36
2023/01/13 04:07:46;;;;;;;;;;;;;;;30.22;69.06;101117.19;5082922;27;70600;-37
2023/01/13 04:10:26;;;;;;;;;;;;;;;30.24;69.11;101117.84;5087473;27;65962;-36
2023/01/13 04:13:17;;;;;;;;;;;;;;;30.17;69.78;101102.59;5082934;27;70494;-36
2023/01/13 04:15:48;;;;;;;;;;;;;;;30.09;70.34;101111.81;5081359;27;66838;-37
2023/01/13 04:18:29;;;;;;;;;;;;;;;30.09;70.36;101103.69;5078854;27;69578;-37
2023/01/13 04:21:01;;;;;;;;;;;;;;;30.05;70.08;101097.84;5079777;27;66067;-38
2023/01/13 04:23:32;;;;;;;;;;;;;;;30.05;70.59;101094.31;5068524;28;70621;-37
2023/01/13 04:26:02;;;;;;;;;;;;;;;30.01;70.55;101082.25;5070915;27;67441;-36
2023/01/13 04:28:33;;;;;;;;;;;;;;;30.03;70.62;101080.16;5082288;27;69305;-38
2023/01/13 04:31:04;;;;;;;;;;;;;;;30.02;70.71;101079.31;5081673;27;66452;-37
2023/01/13 04:33:35;;;;;;;;;;;;;;;30.00;71.12;101069.75;5062892;27;70280;-36
2023/01/13 04:36:06;;;;;;;;;;;;;;;30.01;70.53;101055.22;5077060;27;67022;-37
2023/01/13 04:38:36;;;;;;;;;;;;;;;30.04;71.10;101069.13;5078211;27;69588;-37
2023/01/13 04:41:08;;;;;;;;;;;;;;;30.06;71.24;101052.69;5040337;27;65205;-36
2023/01/13 04:43:38;;;;;;;;;;;;;;;30.08;71.69;101053.31;5082475;27;69903;-36
2023/01/13 04:46:09;;;;;;;;;;;;;;;30.06;71.55;101048.13;5045509;27;67035;-36
2023/01/13 04:48:40;;;;;;;;;;;;;;;30.07;71.40;101043.53;5080389;27;69729;-36
2023/01/13 04:51:10;;;;;;;;;;;;;;;30.08;72.10;101042.47;5081921;27;66966;-36
2023/01/13 04:53:41;;;;;;;;;;;;;;;30.12;71.76;101034.78;5079586;27;69265;-36
2023/01/13 04:56:12;;;;;;;;;;;;;;;30.16;71.91;101031.44;5081365;27;66965;-36
2023/01/13 04:58:43;;;;;;;;;;;;;;;30.16;72.31;101026.03;5067503;27;69112;-37
2023/01/13 05:01:14;;;;;;;;;;;;;;;30.17;72.10;101022.31;5078659;27;65325;-36
2023/01/13 05:03:45;;;;;;;;;;;;;;;30.20;72.36;101016.47;5078834;27;69764;-37
2023/01/13 05:06:15;;;;;;;;;;;;;;;30.20;72.14;101005.63;5076025;27;65681;-37
2023/01/13 05:08:46;;;;;;;;;;;;;;;30.23;72.26;101001.72;5061023;28;70324;-37
2023/01/13 05:17:02;;;;;;;;;;;;;;;30.29;72.53;100987.31;5078550;27;66819;-34
2023/01/13 05:19:33;;;;;;;;;;;;;;;30.28;72.83;100986.50;5058318;27;68514;-36
2023/01/13 05:27:42;;;;;;;;;;;;;;;30.32;71.92;100973.34;5080108;27;66917;-37
2023/01/13 05:30:13;;;;;;;;;;;;;;;30.24;72.36;100969.00;5077859;27;70189;-36
2023/01/13 05:32:44;;;;;;;;;;;;;;;30.25;71.98;100965.25;5087210;27;66009;-36
2023/01/13 05:35:15;;;;;;;;;;;;;;;30.32;72.39;100959.00;5088783;27;69419;-36
2023/01/13 05:37:46;;;;;;;;;;;;;;;30.37;71.89;100956.44;5085199;27;67125;-36
2023/01/13 05:43:20;;;;;;;;;;;;;;;30.47;71.80;100935.19;5082853;27;66019;-36
2023/01/13 05:45:58;;;;;;;;;;;;;;;30.52;71.33;100938.06;5088524;27;69389;-36
2023/01/13 05:48:30;;;;;;;;;;;;;;;30.56;70.92;100927.63;5083324;27;66134;-35
2023/01/13 05:51:02;;;;;;;;;;;;;;;30.59;71.12;100919.94;5077271;27;70029;-35
2023/01/13 05:53:34;;;;;;;;;;;;;;;30.62;70.20;100919.50;5087081;27;66984;-35
2023/01/13 05:56:05;;;;;;;;;;;;;;;30.62;70.27;100900.53;5083361;27;70720;-37
2023/01/13 05:58:36;;;;;;;;;;;;;;;30.68;70.10;100909.66;5083371;27;65860;-36
2023/01/13 06:01:08;;;;;;;;;;;;;;;30.69;70.31;100895.88;5081353;27;70363;-37
2023/01/13 06:03:38;;;;;;;;;;;;;;;30.71;69.64;100888.38;5084118;27;65825;-36
2023/01/13 06:06:09;;;;;;;;;;;;;;;30.72;69.76;100881.91;5083381;27;70522;-36
2023/01/13 06:08:39;;;;;;;;;;;;;;;30.76;69.39;100876.91;5085576;27;66865;-35
2023/01/13 06:11:10;;;;;;;;;;;;;;;30.79;69.58;100875.63;5082496;27;70217;-36
2023/01/13 06:13:41;;;;;;;;;;;;;;;30.79;69.04;100868.34;5082383;27;65372;-37
2023/01/13 06:16:11;;;;;;;;;;;;;;;30.82;68.98;100872.53;5064080;27;69126;-35
2023/01/13 06:18:42;;;;;;;;;;;;;;;30.85;68.77;100861.25;5087192;27;65832;-35
2023/01/13 06:21:12;;;;;;;;;;;;;;;30.87;68.94;100856.41;5086231;27;69971;-36
2023/01/13 06:23:43;;;;;;;;;;;;;;;30.89;68.86;100857.03;5088902;27;65856;-35
2023/01/13 06:26:16;;;;;;;;;;;;;;;30.91;68.71;100852.22;5087181;27;68892;-36
2023/01/13 06:28:48;;;;;;;;;;;;;;;30.92;68.11;100857.44;5083990;27;66655;-35
2023/01/13 06:31:19;;;;;;;;;;;;;;;30.96;68.01;100851.56;5083906;27;70253;-34
2023/01/13 06:33:53;;;;;;;;;;;;;;;30.96;67.78;100846.97;5074875;27;65722;-36
2023/01/13 06:36:30;;;;;;;;;;;;;;;30.99;67.75;100841.13;5083080;27;69394;-36
2023/01/13 06:39:01;;;;;;;;;;;;;;;31.01;67.47;100840.88;5071334;27;66738;-37
2023/01/13 06:44:23;;;;;;;;;;;;;;;31.03;66.30;100842.31;5081721;27;66489;-36
2023/01/13 06:46:54;;;;;;;;;;;;;;;31.04;66.51;100827.75;5083300;27;69859;-36
2023/01/13 06:49:25;;;;;;;;;;;;;;;31.06;66.22;100831.03;5059672;28;65643;-36
2023/01/13 06:51:55;;;;;;;;;;;;;;;31.07;65.98;100824.59;5084673;27;70123;-36
2023/01/13 06:54:26;;;;;;;;;;;;;;;31.09;66.30;100818.91;5086586;27;66561;-36
2023/01/13 06:56:57;;;;;;;;;;;;;;;31.10;66.22;100813.28;5061009;28;70368;-37
2023/01/13 06:59:29;;;;;;;;;;;;;;;31.10;65.97;100810.59;5088390;27;66481;-37
2023/01/13 07:01:59;;;;;;;;;;;;;;;31.12;65.96;100813.91;5081115;27;69821;-36
2023/01/13 07:04:31;;;;;;;;;;;;;;;31.14;65.72;100805.53;5089189;27;66883;-37
2023/01/13 07:07:02;;;;;;;;;;;;;;;31.18;65.55;100801.34;5082211;27;69560;-36
2023/01/13 07:09:33;;;;;;;;;;;;;;;31.19;65.42;100802.16;5085945;27;66967;-37
2023/01/13 07:12:04;;;;;;;;;;;;;;;31.21;65.43;100800.06;5083077;27;70386;-37
2023/01/13 07:17:24;;;;;;;;;;;;;;;31.25;64.98;100793.13;5082973;27;69531;-37
2023/01/13 07:19:54;;;;;;;;;;;;;;;31.26;64.74;100792.06;5080028;27;67155;-36
2023/01/13 07:22:25;;;;;;;;;;;;;;;31.27;65.09;100788.31;5085897;27;70371;-37
2023/01/13 07:24:56;;;;;;;;;;;;;;;31.28;64.79;100789.97;5075289;27;66231;-37
2023/01/13 07:27:27;;;;;;;;;;;;;;;31.30;64.33;100787.88;5077948;27;69865;-38
2023/01/13 07:29:58;;;;;;;;;;;;;;;30.87;64.55;100723.72;5078461;27;65999;-36
2023/01/13 07:32:30;;;;;;;;;;;;;;;31.32;64.20;100796.63;5078691;27;69891;-37
2023/01/13 07:35:04;;;;;;;;;;;;;;;31.32;64.43;100792.00;5039908;27;66435;-36
2023/01/13 07:37:35;;;;;;;;;;;;;;;31.33;64.22;100788.25;5075585;27;69539;-36
2023/01/13 07:40:06;;;;;;;;;;;;;;;31.32;64.38;100791.19;5076771;27;66668;-37
2023/01/13 07:45:26;;;;;;;;;;;;;;;31.37;63.66;100784.06;5079659;27;65973;-37
2023/01/13 07:47:57;;;;;;;;;;;;;;;31.41;63.46;100784.44;5078926;27;69756;-37
2023/01/13 07:50:28;;;;;;;;;;;;;;;31.42;63.29;100785.25;5078867;27;65597;-43
2023/01/13 07:52:58;;;;;;;;;;;;;;;31.44;63.37;100789.41;5079120;27;70285;-37
2023/01/13 07:55:29;;;;;;;;;;;;;;;31.45;62.89;100774.78;5064171;27;66940;-44
2023/01/13 07:57:59;;;;;;;;;;;;;;;31.48;62.69;100768.94;5077742;27;70540;-36
2023/01/13 08:00:30;;;;;;;;;;;;;;;31.50;63.08;100766.81;5078507;27;65975;-38
2023/01/13 08:03:01;;;;;;;;;;;;;;;31.49;63.56;100759.72;5079306;27;70788;-36
2023/01/13 08:05:33;;;;;;;;;;;;;;;31.52;63.01;100759.28;5083029;27;66526;-36
2023/01/13 08:08:04;;;;;;;;;;;;;;;31.54;62.73;100746.34;5082138;27;70255;-37
2023/01/13 08:10:36;;;;;;;;;;;;;;;31.56;61.59;100754.22;5056331;28;66013;-36
2023/01/13 08:13:17;;;;;;;;;;;;;;;31.58;60.97;100757.53;5067130;27;69944;-37
2023/01/13 08:15:52;;;;;;;;;;;;;;;31.61;61.11;100751.66;5059022;28;66056;-37
2023/01/13 08:18:22;;;;;;;;;;;;;;;31.62;61.56;100745.16;5080371;27;70204;-38
2023/01/13 08:20:53;;;;;;;;;;;;;;;31.65;61.99;100752.03;5081564;27;66563;-37
2023/01/13 08:23:24;;;;;;;;;;;;;;;31.67;62.14;100756.16;5090618;27;69747;-37
2023/01/13 08:25:58;;;;;;;;;;;;;;;31.69;62.07;100753.22;5083470;27;67700;-37
2023/01/13 08:28:30;;;;;;;;;;;;;;;31.72;62.40;100750.88;5088231;27;70511;-37
2023/01/13 08:31:05;;;;;;;;;;;;;;;31.76;61.46;100741.25;5084811;27;66377;-38
2023/01/13 08:33:36;;;;;;;;;;;;;;;31.81;61.92;100751.38;5075750;27;70751;-37
2023/01/13 08:36:08;;;;;;;;;;;;;;;31.85;62.04;100747.16;5085534;27;66949;-37
2023/01/13 08:38:39;;;;;;;;;;;;;;;31.87;61.22;100741.50;5084608;27;69375;-37
2023/01/13 08:41:11;;;;;;;;;;;;;;;31.87;61.07;100745.03;5074610;27;66985;-37
2023/01/13 08:43:42;;;;;;;;;;;;;;;31.90;61.13;100744.59;5085136;27;70212;-38
2023/01/13 08:46:13;;;;;;;;;;;;;;;31.90;60.59;100744.59;5088265;27;67036;-38
2023/01/13 08:48:43;;;;;;;;;;;;;;;31.93;60.61;100738.75;5076327;27;70736;-37
2023/01/13 08:51:14;;;;;;;;;;;;;;;31.96;58.48;100732.84;5081463;27;66283;-37
2023/01/13 08:53:45;;;;;;;;;;;;;;;32.02;60.01;100733.81;5083575;27;69728;-37
2023/01/13 08:56:15;;;;;;;;;;;;;;;32.04;60.06;100737.13;5087692;27;66715;-36
2023/01/13 08:58:46;;;;;;;;;;;;;;;32.09;61.00;100739.13;5082587;27;69198;-38
2023/01/13 09:01:20;;;;;;;;;;;;;;;32.14;60.71;100736.53;5091069;27;66483;-37
2023/01/13 09:03:51;;;;;;;;;;;;;;;32.20;60.55;100739.16;5066236;27;69524;-38
2023/01/13 09:06:22;;;;;;;;;;;;;;;32.26;61.08;100726.53;5089627;27;66981;-38
2023/01/13 09:08:54;;;;;;;;;;;;;;;32.31;59.73;100723.13;5089862;27;70570;-38
2023/01/13 09:14:22;;;;;;;;;;;;;;;32.35;60.50;100722.44;5081167;27;69932;-38
2023/01/13 09:16:53;;;;;;;;;;;;;;;32.37;59.33;100722.19;5069383;27;66269;-37
2023/01/13 09:19:24;;;;;;;;;;;;;;;32.39;59.46;100726.31;5083471;27;70439;-37
2023/01/13 09:21:56;;;;;;;;;;;;;;;32.41;60.04;100723.38;5080024;27;65819;-37
2023/01/13 09:24:27;;;;;;;;;;;;;;;32.46;59.78;100726.25;5082889;27;69981;-37
2023/01/13 09:26:57;;;;;;;;;;;;;;;32.51;58.48;100734.50;5082919;27;65838;-40
2023/01/13 09:29:28;;;;;;;;;;;;;;;32.54;58.44;100727.78;5059878;27;68996;-37
2023/01/13 09:31:59;;;;;;;;;;;;;;;32.57;58.58;100733.59;5081674;27;66710;-38
2023/01/13 09:37:18;;;;;;;;;;;;;;;32.63;57.82;100737.25;5076199;27;65958;-41
2023/01/13 09:39:49;;;;;;;;;;;;;;;32.67;58.85;100738.41;5079050;27;69114;-38
2023/01/13 09:45:25;;;;;;;;;;;;;;;32.68;58.52;100746.34;5077114;27;70172;-37
2023/01/13 09:48:01;;;;;;;;;;;;;;;32.69;59.02;100747.97;5081422;27;66643;-37
2023/01/13 09:50:38;;;;;;;;;;;;;;;32.67;59.46;100741.94;5079682;27;70464;-37
2023/01/13 09:53:17;;;;;;;;;;;;;;;32.70;58.81;100743.38;5081282;27;66697;-38
2023/01/13 09:55:48;;;;;;;;;;;;;;;32.70;58.28;100737.94;5077723;27;70329;-37
2023/01/13 09:58:19;;;;;;;;;;;;;;;32.71;59.21;100745.03;5067394;28;66027;-37
2023/01/13 10:00:49;;;;;;;;;;;;;;;32.69;59.24;100752.59;5080118;27;70381;-38
2023/01/13 10:03:30;;;;;;;;;;;;;;;32.69;59.16;100753.41;5079893;27;65548;-38
2023/01/13 10:06:12;;;;;;;;;;;;;;;32.66;58.03;100751.16;5083653;27;70413;-39
2023/01/13 10:08:44;;;;;;;;;;;;;;;32.71;58.29;100758.63;5079381;27;65823;-38
2023/01/13 10:14:11;;;;;;;;;;;;;;;32.72;58.56;100765.69;5076797;27;66611;-37
2023/01/13 10:16:45;;;;;;;;;;;;;;;32.70;59.59;100770.53;5048117;27;69742;-39
2023/01/13 10:19:18;;;;;;;;;;;;;;;32.70;59.52;100770.53;5082419;27;65371;-39
2023/01/13 10:22:00;;;;;;;;;;;;;;;32.71;59.32;100774.91;5079723;27;70580;-37
2023/01/13 10:24:40;;;;;;;;;;;;;;;32.65;59.08;100764.97;5084838;27;66613;-38
2023/01/13 10:27:30;;;;;;;;;;;;;;;32.66;59.48;100774.78;5073157;27;71016;-38
2023/01/13 10:30:19;;;;;;;;;;;;;;;32.64;58.99;100777.72;5050205;28;66312;-37
2023/01/13 10:33:19;;;;;;;;;;;;;;;32.64;59.65;100779.63;5083113;27;69802;-40
2023/01/13 10:35:50;;;;;;;;;;;;;;;32.61;59.77;100788.25;5064322;28;66583;-37
2023/01/13 10:38:23;;;;;;;;;;;;;;;32.66;59.73;100785.66;5079108;27;69999;-38
2023/01/13 10:41:04;;;;;;;;;;;;;;;32.52;60.45;100792.38;5076912;27;67501;-38
2023/01/13 10:43:35;;;;;;;;;;;;;;;32.13;61.32;100759.31;5077816;27;70210;-36
2023/01/13 10:46:14;;;;;;;;;;;;;;;32.27;62.29;100799.59;5061520;27;67185;-39
2023/01/13 10:48:52;;;;;;;;;;;;;;;32.20;62.60;100798.84;5076815;27;69943;-38
2023/01/13 10:51:25;;;;;;;;;;;;;;;32.13;62.87;100800.03;5077986;27;66135;-37
2023/01/13 10:54:13;;;;;;;;;;;;;;;32.05;63.44;100807.44;5081197;27;70352;-37
2023/01/13 10:56:44;;;;;;;;;;;;;;;31.98;63.91;100804.00;5081269;27;66776;-36
2023/01/13 10:59:15;;;;;;;;;;;;;;;31.95;63.93;100807.13;5069349;28;69895;-37
2023/01/13 11:01:57;;;;;;;;;;;;;;;31.88;64.34;100809.09;5075194;27;66639;-37
2023/01/13 11:04:59;;;;;;;;;;;;;;;31.84;65.27;100807.88;5078012;27;69766;-38
2023/01/13 11:07:33;;;;;;;;;;;;;;;31.81;65.66;100811.06;5071456;27;65274;-38
2023/01/13 11:10:16;;;;;;;;;;;;;;;31.76;66.20;100811.75;5075280;27;70431;-37
2023/01/13 11:12:56;;;;;;;;;;;;;;;31.75;65.72;100828.25;5079849;27;66086;-37
2023/01/13 11:15:37;;;;;;;;;;;;;;;31.73;66.13;100827.63;5066733;28;70563;-36
2023/01/13 11:18:28;;;;;;;;;;;;;;;31.71;65.94;100835.19;5091183;27;66095;-37
2023/01/13 11:20:59;;;;;;;;;;;;;;;31.63;67.00;100830.06;5062021;28;69805;-37
2023/01/13 11:23:43;;;;;;;;;;;;;;;31.64;66.95;100826.31;5087562;27;67292;-37
2023/01/13 11:26:18;;;;;;;;;;;;;;;31.71;65.80;100835.19;5078754;27;69513;-37
2023/01/13 11:28:52;;;;;;;;;;;;;;;31.74;65.61;100849.13;5081707;27;65615;-37
2023/01/13 11:31:29;;;;;;;;;;;;;;;31.78;65.03;100844.88;5080138;27;70668;-37
2023/01/13 11:34:23;;;;;;;;;;;;;;;31.80;65.31;100850.09;5079035;27;66254;-36
2023/01/13 11:36:56;;;;;;;;;;;;;;;31.82;64.96;100848.81;5072519;27;69529;-37
2023/01/13 11:39:44;;;;;;;;;;;;;;;31.85;65.16;100852.97;5080161;27;67031;-37
2023/01/13 11:42:34;;;;;;;;;;;;;;;31.86;65.55;100862.75;5083531;27;70033;-36
2023/01/13 11:45:26;;;;;;;;;;;;;;;31.87;65.37;100863.56;5082203;27;66684;-37
2023/01/13 11:47:57;;;;;;;;;;;;;;;31.87;65.38;100858.97;5066019;28;69815;-38
2023/01/13 11:50:33;;;;;;;;;;;;;;;31.87;65.56;100858.97;5087055;27;66030;-36
2023/01/13 11:53:15;;;;;;;;;;;;;;;31.88;65.81;100865.25;5090647;27;69980;-36
2023/01/13 11:55:51;;;;;;;;;;;;;;;31.86;65.68;100867.34;5085554;27;65430;-37
2023/01/13 11:58:25;;;;;;;;;;;;;;;31.87;65.98;100867.09;5085681;27;70150;-38
2023/01/13 12:01:18;;;;;;;;;;;;;;;31.86;65.57;100865.44;5084426;27;66096;-37
2023/01/13 12:04:05;;;;;;;;;;;;;;;31.85;65.91;100869.22;5080646;27;69822;-36
2023/01/13 12:06:40;;;;;;;;;;;;;;;31.85;66.06;100871.13;5066561;28;66511;-37
2023/01/13 12:09:18;;;;;;;;;;;;;;;31.93;66.49;100868.97;5078901;27;69576;-36
2023/01/13 12:14:52;;;;;;;;;;;;;;;31.72;67.58;100872.09;5084627;27;70197;-36
2023/01/13 12:17:42;;;;;;;;;;;;;;;31.65;67.38;100876.75;5082980;27;67042;-36
2023/01/13 12:20:32;;;;;;;;;;;;;;;31.54;68.31;100881.06;5086268;27;70608;-37
2023/01/13 12:23:05;;;;;;;;;;;;;;;31.53;68.01;100885.63;5039235;27;66230;-38
2023/01/13 12:25:39;;;;;;;;;;;;;;;31.50;68.74;100896.09;5085012;27;69261;-39
2023/01/13 12:28:13;;;;;;;;;;;;;;;31.50;69.15;100896.09;5083987;27;64992;-39
2023/01/13 12:30:49;;;;;;;;;;;;;;;31.48;69.08;100893.63;5059985;28;70416;-36
2023/01/13 12:33:20;;;;;;;;;;;;;;;31.48;69.98;100904.50;5084122;27;66584;-37
2023/01/13 12:35:57;;;;;;;;;;;;;;;31.47;69.99;100897.38;5081849;27;70432;-37
2023/01/13 12:38:41;;;;;;;;;;;;;;;31.47;70.26;100910.94;5067318;28;66843;-38
2023/01/13 12:41:17;;;;;;;;;;;;;;;31.46;70.49;100916.59;5077766;27;69659;-36
2023/01/13 12:46:46;;;;;;;;;;;;;;;31.45;70.64;100921.16;5086932;27;70302;-37
2023/01/13 12:49:21;;;;;;;;;;;;;;;31.44;71.67;100929.53;5080578;27;65810;-35
2023/01/13 12:51:52;;;;;;;;;;;;;;;31.43;71.13;100928.72;5085984;27;70323;-36
2023/01/13 12:54:54;;;;;;;;;;;;;;;31.41;70.73;100930.81;5078902;27;65982;-38
2023/01/13 12:57:26;;;;;;;;;;;;;;;31.45;70.82;100937.44;5033067;27;69836;-36
2023/01/13 13:00:00;;;;;;;;;;;;;;;31.44;70.63;100943.91;5080170;27;66819;-35
2023/01/13 13:02:35;;;;;;;;;;;;;;;31.43;71.02;100939.56;5081449;27;69586;-37
2023/01/13 13:05:15;;;;;;;;;;;;;;;31.42;71.28;100948.72;5081914;27;67218;-36
2023/01/13 13:07:52;;;;;;;;;;;;;;;31.40;71.36;100956.28;5080200;27;70008;-37
2023/01/13 13:10:28;;;;;;;;;;;;;;;31.37;71.81;100957.53;5079961;27;66723;-37
2023/01/13 13:13:17;;;;;;;;;;;;;;;31.36;71.82;100961.28;5078393;27;70338;-37
2023/01/13 13:15:49;;;;;;;;;;;;;;;31.37;71.93;100967.53;5080434;27;66178;-37
2023/01/13 13:18:26;;;;;;;;;;;;;;;31.34;72.19;100976.06;5080069;27;70200;-36
2023/01/13 13:21:05;;;;;;;;;;;;;;;31.34;72.44;100970.66;5080245;27;65561;-37
2023/01/13 13:23:53;;;;;;;;;;;;;;;31.32;72.78;100970.91;5078835;27;70575;-37
2023/01/13 13:26:34;;;;;;;;;;;;;;;31.31;72.48;100977.34;5077137;27;66000;-37
2023/01/13 13:29:14;;;;;;;;;;;;;;;31.32;72.74;100986.34;5075174;27;68972;-37
2023/01/13 13:32:03;;;;;;;;;;;;;;;31.21;71.71;100987.06;5074868;27;65760;-38
2023/01/13 13:34:34;;;;;;;;;;;;;;;31.15;72.04;100988.75;5077834;27;70309;-37
2023/01/13 13:37:19;;;;;;;;;;;;;;;31.13;72.39;100994.38;5076353;27;66205;-36
2023/01/13 13:48:52;;;;;;;;;;;;;;;31.22;73.47;100997.66;5089333;27;66936;-36
2023/01/13 13:51:36;;;;;;;;;;;;;;;31.24;72.83;100990.13;5080032;27;69969;-36
2023/01/13 13:54:13;;;;;;;;;;;;;;;31.22;73.93;100986.00;5083551;27;66684;-36
2023/01/13 13:56:45;;;;;;;;;;;;;;;31.24;73.70;100989.31;5079893;27;68881;-36
2023/01/13 13:59:29;;;;;;;;;;;;;;;31.25;74.01;100993.69;5080725;27;66676;-36
2023/01/13 14:02:02;;;;;;;;;;;;;;;31.19;72.59;100994.56;5079820;27;70479;-38
2023/01/13 14:04:35;;;;;;;;;;;;;;;31.06;69.02;100999.00;5079746;27;66493;-37
2023/01/13 14:07:20;;;;;;;;;;;;;;;30.87;66.28;100995.41;5080100;27;70631;-38
2023/01/13 14:09:55;;;;;;;;;;;;;;;30.70;66.04;101005.88;5060967;27;66260;-37
2023/01/13 14:12:26;;;;;;;;;;;;;;;30.64;65.48;101005.91;5083411;27;69355;-36
2023/01/13 14:14:58;;;;;;;;;;;;;;;30.56;64.77;101009.66;5080902;27;65244;-37